createdAt,value
2019-05-11T00:01:12.192Z,96582.28
2019-05-11T00:03:39.239Z,96586.91
2019-05-11T00:06:06.597Z,96589.70
2019-05-11T00:08:33.647Z,96587.79
2019-05-11T00:11:00.696Z,96583.36
2019-05-11T00:13:27.663Z,96582.70
2019-05-11T00:15:54.905Z,96589.14
2019-05-11T00:18:22.274Z,96586.53
2019-05-11T00:20:49.410Z,96589.47
2019-05-11T00:23:16.578Z,96586.09
2019-05-11T00:25:43.821Z,96588.73
2019-05-11T00:28:11.097Z,96586.78
2019-05-11T00:30:38.265Z,96589.86
2019-05-11T00:33:05.485Z,96583.61
2019-05-11T00:35:32.948Z,96582.70
2019-05-11T00:38:00.208Z,96582.23
2019-05-11T00:40:27.663Z,96596.03
2019-05-11T00:42:54.921Z,96604.64
2019-05-11T00:45:22.279Z,96603.73
2019-05-11T00:47:49.535Z,96602.71
2019-05-11T00:50:16.901Z,96610.09
2019-05-11T00:52:44.296Z,96604.32
2019-05-11T00:55:12.220Z,96605.11
2019-05-11T00:57:39.282Z,96598.33
2019-05-11T01:00:07.971Z,96597.43
2019-05-11T01:02:35.523Z,96594.94
2019-05-11T01:05:05.173Z,96594.94
2019-05-11T01:07:33.314Z,96598.31
2019-05-11T01:10:00.776Z,96587.91
2019-05-11T01:12:28.136Z,96594.14
2019-05-11T01:14:55.603Z,96591.98
2019-05-11T01:17:22.949Z,96590.62
2019-05-11T01:19:50.415Z,96598.31
2019-05-11T01:22:17.563Z,96595.73
2019-05-11T01:24:44.925Z,96592.00
2019-05-11T01:27:14.446Z,96588.16
2019-05-11T01:29:41.688Z,96593.91
2019-05-11T01:32:09.253Z,96594.70
2019-05-11T01:34:36.096Z,96609.64
2019-05-11T01:37:03.758Z,96611.33
2019-05-11T01:39:31.588Z,96607.82
2019-05-11T01:41:58.801Z,96611.33
2019-05-11T01:44:26.349Z,96604.20
2019-05-11T01:46:54.019Z,96608.97
2019-05-11T01:49:21.686Z,96609.96
2019-05-11T01:51:48.690Z,96606.68
2019-05-11T01:54:16.036Z,96614.49
2019-05-11T01:56:43.763Z,96612.70
2019-05-11T01:59:11.126Z,96607.69
2019-05-11T02:01:38.355Z,96608.72
2019-05-11T02:04:05.586Z,96606.23
2019-05-11T02:06:33.270Z,96604.53
2019-05-11T02:09:00.524Z,96597.75
2019-05-11T02:11:28.270Z,96599.56
2019-05-11T02:13:55.323Z,96602.16
2019-05-11T02:16:22.851Z,96593.91
2019-05-11T02:18:49.994Z,96596.97
2019-05-11T02:21:19.194Z,96596.40
2019-05-11T02:23:46.264Z,96594.81
2019-05-11T02:26:13.622Z,96589.03
2019-05-11T02:28:40.974Z,96590.62
2019-05-11T02:31:08.811Z,96592.00
2019-05-11T02:33:35.906Z,96591.78
2019-05-11T02:36:04.145Z,96588.02
2019-05-11T02:38:32.079Z,96597.16
2019-05-11T02:40:59.755Z,96598.09
2019-05-11T02:43:26.762Z,96605.08
2019-05-11T02:45:54.690Z,96605.87
2019-05-11T02:48:22.101Z,96608.72
2019-05-11T02:50:49.612Z,96609.94
2019-05-11T02:53:17.210Z,96607.33
2019-05-11T02:55:46.054Z,96605.31
2019-05-11T02:58:13.497Z,96610.27
2019-05-11T03:00:44.719Z,96604.05
2019-05-11T03:03:12.556Z,96604.62
2019-05-11T03:05:39.650Z,96608.59
2019-05-11T03:08:06.886Z,96608.36
2019-05-11T03:10:34.248Z,96611.97
2019-05-11T03:13:01.493Z,96615.23
2019-05-11T03:15:29.249Z,96619.08
2019-05-11T03:17:56.969Z,96619.88
2019-05-11T03:20:23.983Z,96631.29
2019-05-11T03:22:50.889Z,96625.43
2019-05-11T03:25:18.031Z,96621.12
2019-05-11T03:27:44.934Z,96614.34
2019-05-11T03:30:12.637Z,96612.06
2019-05-11T03:32:39.589Z,96618.38
2019-05-11T03:35:06.669Z,96619.97
2019-05-11T03:37:34.048Z,96623.34
2019-05-11T03:40:01.182Z,96620.62
2019-05-11T03:42:28.529Z,96633.05
2019-05-11T03:44:55.795Z,96636.64
2019-05-11T03:47:22.935Z,96644.08
2019-05-11T03:49:49.951Z,96651.22
2019-05-11T03:52:17.649Z,96649.63
2019-05-11T03:54:44.548Z,96645.89
2019-05-11T03:57:12.861Z,96645.89
2019-05-11T03:59:40.000Z,96647.25
2019-05-11T04:02:07.030Z,96654.26
2019-05-11T04:04:33.851Z,96653.00
2019-05-11T04:07:01.175Z,96654.69
2019-05-11T04:09:28.092Z,96654.67
2019-05-11T04:11:55.130Z,96663.48
2019-05-11T04:14:22.651Z,96671.15
2019-05-11T04:16:49.678Z,96673.30
2019-05-11T04:19:17.874Z,96675.33
2019-05-11T04:21:45.112Z,96670.05
2019-05-11T04:24:12.366Z,96664.31
2019-05-11T04:26:39.537Z,96672.04
2019-05-11T04:29:06.439Z,96674.55
2019-05-11T04:31:33.549Z,96674.92
2019-05-11T04:34:00.467Z,96677.42
2019-05-11T04:36:29.747Z,96683.11
2019-05-11T04:38:56.868Z,96677.45
2019-05-11T04:41:24.096Z,96680.41
2019-05-11T04:43:50.884Z,96679.28
2019-05-11T04:46:18.130Z,96664.84
2019-05-11T04:48:45.812Z,96674.23
2019-05-11T04:51:13.031Z,96671.19
2019-05-11T04:53:40.032Z,96669.03
2019-05-11T04:56:07.139Z,96669.03
2019-05-11T04:58:34.290Z,96671.41
2019-05-11T05:01:01.333Z,96676.73
2019-05-11T05:03:40.420Z,96678.06
2019-05-11T05:05:57.800Z,96675.23
2019-05-11T05:08:26.378Z,96675.34
2019-05-11T05:10:58.648Z,96675.34
2019-05-11T05:13:28.695Z,96670.02
2019-05-11T05:15:52.043Z,96678.95
2019-05-11T05:18:20.985Z,96686.27
2019-05-11T05:20:48.915Z,96671.98
2019-05-11T05:23:15.995Z,96674.20
2019-05-11T05:25:45.182Z,96678.90
2019-05-11T05:28:12.116Z,96670.93
2019-05-11T05:30:39.354Z,96677.05
2019-05-11T05:33:06.386Z,96680.88
2019-05-11T05:35:33.444Z,96683.09
2019-05-11T05:38:03.541Z,96685.75
2019-05-11T05:40:30.783Z,96686.56
2019-05-11T05:42:57.732Z,96690.92
2019-05-11T05:45:25.517Z,96689.33
2019-05-11T05:47:52.711Z,96689.20
2019-05-11T05:50:20.480Z,96689.32
2019-05-11T05:52:48.544Z,96688.91
2019-05-11T05:55:15.698Z,96683.30
2019-05-11T05:57:42.999Z,96681.59
2019-05-11T06:00:10.631Z,96677.48
2019-05-11T06:02:37.872Z,96675.17
2019-05-11T06:05:05.782Z,96689.36
2019-05-11T06:07:33.104Z,96689.31
2019-05-11T06:10:00.307Z,96693.23
2019-05-11T06:12:27.410Z,96689.28
2019-05-11T06:14:54.315Z,96693.13
2019-05-11T06:17:21.605Z,96686.12
2019-05-11T06:19:48.505Z,96682.52
2019-05-11T06:22:15.743Z,96681.39
2019-05-11T06:24:43.093Z,96679.11
2019-05-11T06:27:10.707Z,96681.22
2019-05-11T06:29:38.351Z,96684.72
2019-05-11T06:32:05.606Z,96680.97
2019-05-11T06:34:32.448Z,96675.84
2019-05-11T06:36:59.451Z,96681.47
2019-05-11T06:39:26.632Z,96680.54
2019-05-11T06:41:53.631Z,96677.06
2019-05-11T06:44:20.816Z,96673.58
2019-05-11T06:46:47.718Z,96668.31
2019-05-11T06:49:14.664Z,96673.45
2019-05-11T06:51:42.584Z,96667.65
2019-05-11T06:54:09.625Z,96657.58
2019-05-11T06:56:37.720Z,96657.19
2019-05-11T06:59:04.877Z,96658.34
2019-05-11T07:01:31.763Z,96656.82
2019-05-11T07:03:59.300Z,96655.67
2019-05-11T07:06:30.356Z,96652.24
2019-05-11T07:08:55.475Z,96654.24
2019-05-11T07:11:22.519Z,96651.72
2019-05-11T07:13:49.764Z,96652.17
2019-05-11T07:16:17.403Z,96646.26
2019-05-11T07:18:44.503Z,96638.49
2019-05-11T07:21:13.122Z,96639.94
2019-05-11T07:23:40.366Z,96638.00
2019-05-11T07:26:07.402Z,96632.30
2019-05-11T07:28:34.501Z,96641.63
2019-05-11T07:31:01.451Z,96638.11
2019-05-11T07:33:28.819Z,96633.42
2019-05-11T07:35:58.122Z,96633.77
2019-05-11T07:38:24.956Z,96633.33
2019-05-11T07:40:52.175Z,96629.88
2019-05-11T07:43:19.310Z,96627.10
2019-05-11T07:45:48.006Z,96629.48
2019-05-11T07:48:15.702Z,96626.35
2019-05-11T07:50:43.355Z,96630.70
2019-05-11T07:53:10.430Z,96624.34
2019-05-11T07:55:38.508Z,96625.47
2019-05-11T07:58:08.038Z,96621.14
2019-05-11T08:00:37.414Z,96623.80
2019-05-11T08:03:03.876Z,96620.98
2019-05-11T08:05:31.243Z,96615.61
2019-05-11T08:07:59.512Z,96617.17
2019-05-11T08:10:28.149Z,96624.87
2019-05-11T08:12:55.334Z,96621.06
2019-05-11T08:15:22.255Z,96618.55
2019-05-11T08:17:49.201Z,96616.83
2019-05-11T08:20:18.496Z,96619.78
2019-05-11T08:22:45.183Z,96604.22
2019-05-11T08:25:12.474Z,96605.17
2019-05-11T08:27:39.520Z,96606.42
2019-05-11T08:30:10.930Z,96604.75
2019-05-11T08:32:38.695Z,96607.08
2019-05-11T08:35:08.549Z,96604.41
2019-05-11T08:37:35.603Z,96599.05
2019-05-11T08:40:04.792Z,96601.52
2019-05-11T08:42:31.597Z,96600.61
2019-05-11T08:45:15.256Z,96605.94
2019-05-11T08:47:28.318Z,96606.70
2019-05-11T08:49:55.622Z,96601.09
2019-05-11T08:52:22.426Z,96597.74
2019-05-11T08:54:49.586Z,96591.85
2019-05-11T08:57:17.983Z,96595.14
2019-05-11T08:59:45.110Z,96586.53
2019-05-11T09:02:12.262Z,96587.06
2019-05-11T09:04:41.925Z,96586.20
2019-05-11T09:07:08.036Z,96581.84
2019-05-11T09:09:35.242Z,96577.95
2019-05-11T09:12:02.959Z,96573.98
2019-05-11T09:14:29.874Z,96572.86
2019-05-11T09:16:57.733Z,96574.61
2019-05-11T09:19:28.234Z,96570.98
2019-05-11T09:21:54.959Z,96568.70
2019-05-11T09:24:22.031Z,96573.23
2019-05-11T09:26:49.027Z,96565.08
2019-05-11T09:29:17.970Z,96566.03
2019-05-11T09:31:44.767Z,96564.72
2019-05-11T09:34:11.816Z,96560.48
2019-05-11T09:36:39.364Z,96559.75
2019-05-11T09:39:08.443Z,96549.17
2019-05-11T09:41:38.104Z,96552.97
2019-05-11T09:44:04.915Z,96553.75
2019-05-11T09:46:31.943Z,96552.03
2019-05-11T09:48:59.239Z,96551.38
2019-05-11T09:51:28.592Z,96555.41
2019-05-11T09:53:55.358Z,96559.17
2019-05-11T09:56:22.808Z,96561.52
2019-05-11T09:58:49.598Z,96562.34
2019-05-11T10:01:18.320Z,96560.46
2019-05-11T10:03:47.922Z,96562.70
2019-05-11T10:06:14.583Z,96556.16
2019-05-11T10:08:41.688Z,96561.05
2019-05-11T10:11:08.681Z,96561.38
2019-05-11T10:13:35.575Z,96558.61
2019-05-11T10:16:07.302Z,96559.98
2019-05-11T10:18:32.316Z,96561.14
2019-05-11T10:20:59.332Z,96557.04
2019-05-11T10:23:27.887Z,96552.28
2019-05-11T10:25:55.139Z,96556.70
2019-05-11T10:28:22.054Z,96547.78
2019-05-11T10:30:49.053Z,96540.80
2019-05-11T10:33:18.641Z,96541.00
2019-05-11T10:35:45.194Z,96537.48
2019-05-11T10:38:12.235Z,96536.60
2019-05-11T10:40:39.236Z,96535.91
2019-05-11T10:43:07.947Z,96535.06
2019-05-11T10:45:37.734Z,96532.79
2019-05-11T10:48:04.333Z,96537.66
2019-05-11T10:50:31.227Z,96537.66
2019-05-11T10:52:59.151Z,96531.73
2019-05-11T12:21:27.728Z,96504.91
2019-05-11T12:23:55.330Z,96512.06
2019-05-11T12:26:23.106Z,96502.30
2019-05-11T12:28:50.214Z,96514.97
2019-05-11T12:31:18.402Z,96512.89
2019-05-11T12:33:48.309Z,96512.11
2019-05-11T12:36:14.979Z,96510.08
2019-05-11T12:38:41.992Z,96511.27
2019-05-11T12:41:09.280Z,96509.09
2019-05-11T12:43:38.189Z,96506.92
2019-05-11T12:46:07.964Z,96507.71
2019-05-11T12:48:35.025Z,96504.94
2019-05-11T12:51:01.926Z,96499.56
2019-05-11T12:53:29.191Z,96505.73
2019-05-11T12:55:58.739Z,96501.04
2019-05-11T12:58:25.101Z,96506.51
2019-05-11T13:00:52.210Z,96503.52
2019-05-11T13:03:19.415Z,96504.88
2019-05-11T13:05:48.418Z,96511.59
2019-05-11T13:08:15.691Z,96510.35
2019-05-11T13:10:42.821Z,96505.41
2019-05-11T13:13:09.825Z,96511.79
2019-05-11T13:15:38.738Z,96501.68
2019-05-11T13:18:08.178Z,96503.13
2019-05-11T13:20:34.895Z,96502.59
2019-05-11T13:23:01.916Z,96498.33
2019-05-11T13:25:28.858Z,96496.25
2019-05-11T13:27:58.137Z,96490.34
2019-05-11T13:30:27.643Z,96487.18
2019-05-11T13:32:54.115Z,96487.37
2019-05-11T13:35:21.025Z,96490.70
2019-05-11T13:37:48.325Z,96486.36
2019-05-11T13:40:15.727Z,96493.02
2019-05-11T13:42:44.727Z,96491.01
2019-05-11T13:45:11.832Z,96481.28
2019-05-11T13:47:51.673Z,96485.95
2019-05-11T13:50:08.337Z,96479.51
2019-05-11T13:52:35.723Z,96479.37
2019-05-11T13:55:05.184Z,96473.44
2019-05-11T13:57:32.608Z,96478.03
2019-05-11T13:59:59.562Z,96469.45
2019-05-11T14:02:28.530Z,96469.26
2019-05-11T14:04:55.542Z,96467.61
2019-05-11T14:07:22.747Z,96456.92
2019-05-11T14:09:49.956Z,96458.16
2019-05-11T14:12:18.220Z,96466.44
2019-05-11T14:14:47.734Z,96472.86
2019-05-11T14:17:14.353Z,96464.36
2019-05-11T14:19:41.184Z,96462.32
2019-05-11T14:22:08.791Z,96460.16
2019-05-11T14:24:37.657Z,96470.59
2019-05-11T14:27:04.855Z,96467.99
2019-05-11T14:29:32.039Z,96466.34
2019-05-11T14:31:59.246Z,96464.67
2019-05-11T14:34:28.379Z,96466.72
2019-05-11T14:36:58.103Z,96462.41
2019-05-11T14:39:24.931Z,96465.22
2019-05-11T14:41:52.121Z,96456.62
2019-05-11T14:44:19.027Z,96454.47
2019-05-11T14:46:47.781Z,96453.92
2019-05-11T14:49:14.771Z,96454.14
2019-05-11T14:51:41.811Z,96453.16
2019-05-11T14:54:09.051Z,96458.30
2019-05-11T14:56:38.100Z,96457.89
2019-05-11T14:59:05.725Z,96452.16
2019-05-11T15:01:32.526Z,96454.86
2019-05-11T15:03:59.590Z,96459.90
2019-05-11T15:06:27.969Z,96461.53
2019-05-11T15:08:55.145Z,96456.33
2019-05-11T15:11:22.631Z,96456.00
2019-05-11T15:13:49.714Z,96449.02
2019-05-11T15:16:18.756Z,96450.69
2019-05-11T15:18:48.238Z,96453.02
2019-05-11T15:21:14.651Z,96458.27
2019-05-11T15:23:42.679Z,96451.89
2019-05-11T15:26:10.158Z,96455.44
2019-05-11T15:28:37.959Z,96457.27
2019-05-11T15:31:07.859Z,96459.64
2019-05-11T15:33:34.772Z,96456.72
2019-05-11T15:36:02.100Z,96454.83
2019-05-11T15:38:28.937Z,96462.01
2019-05-11T15:40:57.945Z,96460.06
2019-05-11T15:43:25.128Z,96458.95
2019-05-11T15:45:52.035Z,96462.95
2019-05-11T15:48:19.174Z,96453.56
2019-05-11T15:50:48.421Z,96455.76
2019-05-11T15:53:17.670Z,96455.75
2019-05-11T15:55:44.307Z,96456.59
2019-05-11T15:58:11.543Z,96457.97
2019-05-11T16:00:40.015Z,96456.80
2019-05-11T16:03:08.240Z,96455.83
2019-05-11T16:05:35.495Z,96456.06
2019-05-11T16:08:02.563Z,96458.84
2019-05-11T16:10:29.465Z,96459.49
2019-05-11T16:12:58.532Z,96463.84
2019-05-11T16:15:27.686Z,96455.78
2019-05-11T16:17:55.118Z,96463.27
2019-05-11T16:20:22.062Z,96467.65
2019-05-11T16:22:49.265Z,96471.00
2019-05-11T16:25:19.234Z,96465.30
2019-05-11T16:27:45.628Z,96467.65
2019-05-11T16:30:13.547Z,96466.46
2019-05-11T16:32:40.571Z,96472.33
2019-05-11T16:35:08.963Z,96466.81
2019-05-11T16:37:38.022Z,96469.58
2019-05-11T16:40:06.567Z,96462.13
2019-05-11T16:42:33.635Z,96462.34
2019-05-11T16:45:00.458Z,96463.98
2019-05-11T16:47:28.478Z,96468.97
2019-05-11T16:49:57.852Z,96467.02
2019-05-11T16:52:25.178Z,96472.73
2019-05-11T16:54:52.339Z,96468.66
2019-05-11T16:57:19.267Z,96460.50
2019-05-11T16:59:47.904Z,96467.84
2019-05-11T17:02:15.063Z,96474.00
2019-05-11T17:04:41.858Z,96479.53
2019-05-11T17:07:09.124Z,96478.40
2019-05-11T17:09:37.798Z,96486.08
2019-05-11T17:12:05.863Z,96492.59
2019-05-11T17:14:32.781Z,96489.87
2019-05-11T17:16:59.999Z,96494.01
2019-05-11T17:19:42.247Z,96493.45
2019-05-11T17:21:56.016Z,96494.64
2019-05-11T17:24:23.220Z,96497.42
2019-05-11T17:26:50.650Z,96493.70
2019-05-11T17:29:18.583Z,96500.62
2019-05-11T17:31:45.663Z,96499.83
2019-05-11T17:34:12.964Z,96495.93
2019-05-11T17:36:40.101Z,96504.62
2019-05-11T17:39:07.501Z,96503.63
2019-05-11T17:41:34.855Z,96504.84
2019-05-11T17:44:02.921Z,96500.71
2019-05-11T17:46:29.755Z,96502.31
2019-05-11T17:48:56.901Z,96500.74
2019-05-11T17:51:25.168Z,96508.23
2019-05-11T17:53:52.292Z,96500.38
2019-05-11T17:56:19.449Z,96505.11
2019-05-11T17:58:48.365Z,96508.65
2019-05-11T18:01:15.647Z,96505.53
2019-05-11T18:03:42.542Z,96505.72
2019-05-11T18:06:09.533Z,96510.44
2019-05-11T18:08:36.759Z,96510.23
2019-05-11T18:11:03.870Z,96511.03
2019-05-11T18:13:30.919Z,96514.56
2019-05-11T18:15:58.033Z,96511.22
2019-05-11T18:18:25.675Z,96517.53
2019-05-11T18:20:52.775Z,96512.02
2019-05-11T18:23:19.616Z,96519.09
2019-05-11T18:25:47.982Z,96517.13
2019-05-11T18:28:15.088Z,96518.91
2019-05-11T18:30:42.229Z,96522.23
2019-05-11T18:33:09.131Z,96521.64
2019-05-11T18:35:36.271Z,96523.63
2019-05-11T18:38:03.695Z,96519.48
2019-05-11T18:40:30.736Z,96525.00
2019-05-11T18:42:57.899Z,96525.98
2019-05-11T18:45:25.077Z,96534.63
2019-05-11T18:47:52.227Z,96534.63
2019-05-11T18:50:29.775Z,96540.70
2019-05-11T18:52:49.072Z,96535.81
2019-05-11T18:55:18.899Z,96545.42
2019-05-11T18:57:48.730Z,96540.91
2019-05-11T19:00:18.251Z,96547.95
2019-05-11T19:02:44.646Z,96548.55
2019-05-11T19:05:11.708Z,96558.77
2019-05-11T19:07:38.867Z,96558.55
2019-05-11T19:10:08.430Z,96559.93
2019-05-11T19:12:37.702Z,96559.12
2019-05-11T19:15:08.460Z,96562.84
2019-05-11T19:17:38.266Z,96564.41
2019-05-11T19:20:08.416Z,96565.97
2019-05-11T19:22:37.058Z,96569.08
2019-05-11T19:25:08.748Z,96574.35
2019-05-11T19:27:35.439Z,96574.94
2019-05-11T19:30:07.988Z,96567.81
2019-05-11T19:32:35.051Z,96576.47
2019-05-11T19:35:03.369Z,96578.02
2019-05-11T19:37:30.395Z,96581.32
2019-05-11T19:39:58.031Z,96580.53
2019-05-11T19:42:25.410Z,96586.98
2019-05-11T19:44:52.407Z,96580.71
2019-05-11T19:47:19.349Z,96584.80
2019-05-11T19:49:47.913Z,96582.44
2019-05-11T19:52:14.974Z,96585.77
2019-05-11T19:54:42.604Z,96587.10
2019-05-11T19:57:09.830Z,96589.64
2019-05-11T19:59:38.746Z,96590.19
2019-05-11T20:02:08.461Z,96599.01
2019-05-11T20:04:35.299Z,96595.84
2019-05-11T20:07:02.618Z,96604.63
2019-05-11T20:09:29.714Z,96607.36
2019-05-11T20:11:58.233Z,96606.54
2019-05-11T20:14:25.240Z,96610.61
2019-05-11T20:16:52.135Z,96612.14
2019-05-11T20:19:19.402Z,96613.27
2019-05-11T20:21:48.442Z,96603.87
2019-05-11T20:24:15.435Z,96610.89
2019-05-11T20:26:42.846Z,96606.95
2019-05-11T20:29:09.960Z,96611.06
2019-05-11T20:31:37.171Z,96614.38
2019-05-11T20:34:04.661Z,96607.30
2019-05-11T20:36:31.708Z,96612.73
2019-05-11T20:38:58.604Z,96611.89
2019-05-11T20:41:27.805Z,96608.07
2019-05-11T20:43:54.353Z,96614.86
2019-05-11T20:46:21.496Z,96610.32
2019-05-11T20:48:48.582Z,96612.44
2019-05-11T20:51:29.726Z,96611.63
2019-05-11T20:53:46.923Z,96619.38
2019-05-11T20:56:14.675Z,96613.25
2019-05-11T20:58:54.392Z,96617.34
2019-05-11T21:01:23.555Z,96608.87
2019-05-11T21:03:50.587Z,96607.29
2019-05-11T21:06:18.465Z,96606.71
2019-05-11T21:08:48.057Z,96611.03
2019-05-11T21:11:14.871Z,96608.29
2019-05-11T21:13:41.910Z,96617.66
2019-05-11T21:16:09.092Z,96623.91
2019-05-11T21:18:38.126Z,96619.97
2019-05-11T21:21:05.491Z,96630.87
2019-05-11T21:23:32.590Z,96634.33
2019-05-11T21:25:59.495Z,96627.77
2019-05-11T21:28:30.417Z,96633.95
2019-05-11T21:30:55.329Z,96632.35
2019-05-11T21:33:22.270Z,96631.30
2019-05-11T21:35:49.393Z,96638.84
2019-05-11T21:38:17.703Z,96632.92
2019-05-11T21:40:44.903Z,96641.47
2019-05-11T21:43:11.998Z,96642.34
2019-05-11T21:45:40.780Z,96645.63
2019-05-11T21:48:08.151Z,96653.96
2019-05-11T21:50:37.005Z,96654.33
2019-05-11T21:53:04.067Z,96654.33
2019-05-11T21:55:31.595Z,96662.75
2019-05-11T21:57:58.492Z,96658.83
2019-05-11T22:00:28.145Z,96659.80
2019-05-11T22:02:55.739Z,96659.73
2019-05-11T22:05:22.885Z,96664.92
2019-05-11T22:07:49.811Z,96670.52
2019-05-11T22:10:17.897Z,96667.14
2019-05-11T22:12:45.095Z,96666.49
2019-05-11T22:15:12.591Z,96664.91
2019-05-11T22:17:44.158Z,96670.81
2019-05-11T22:20:13.436Z,96664.40
2019-05-11T22:22:40.560Z,96658.20
2019-05-11T22:25:08.271Z,96659.75
2019-05-11T22:27:38.394Z,96660.15
2019-05-11T22:30:08.327Z,96660.52
2019-05-11T22:32:38.290Z,96665.98
2019-05-11T22:35:12.355Z,96667.71
2019-05-11T22:37:39.809Z,96666.09
2019-05-11T22:40:08.373Z,96669.70
2019-05-11T22:42:35.954Z,96675.86
2019-05-11T22:45:08.125Z,96663.09
2019-05-11T22:47:34.691Z,96673.34
2019-05-11T22:50:05.098Z,96672.47
2019-05-11T22:52:36.382Z,96672.63
2019-05-11T22:55:01.803Z,96672.00
2019-05-11T22:57:28.798Z,96669.20
2019-05-11T22:59:55.960Z,96669.52
2019-05-11T23:02:24.733Z,96662.35
2019-05-11T23:04:51.881Z,96660.87
2019-05-11T23:07:18.676Z,96653.56
2019-05-11T23:09:46.118Z,96650.76
2019-05-11T23:12:13.585Z,96654.85
2019-05-11T23:14:40.649Z,96652.27
2019-05-11T23:17:08.173Z,96655.17
2019-05-11T23:19:35.276Z,96658.83
2019-05-11T23:22:05.387Z,96665.39
2019-05-11T23:24:31.960Z,96668.05
2019-05-11T23:26:59.063Z,96679.28
2019-05-11T23:29:27.909Z,96689.42
2019-05-11T23:31:55.368Z,96693.09
2019-05-11T23:34:22.407Z,96694.50
2019-05-11T23:36:49.607Z,96685.81
2019-05-11T23:39:17.871Z,96682.53
2019-05-11T23:41:45.238Z,96684.89
2019-05-11T23:44:12.260Z,96688.67
2019-05-11T23:46:39.294Z,96692.70
2019-05-11T23:49:08.844Z,96688.39
2019-05-11T23:51:35.793Z,96690.11
2019-05-11T23:54:02.921Z,96697.41
2019-05-11T23:56:30.536Z,96690.97
2019-05-11T23:58:57.955Z,96701.37
